createdAt,value
2019-03-01T00:00:31.726Z,8.21
2019-03-01T00:01:31.736Z,8.26
2019-03-01T00:02:31.703Z,8.18
2019-03-01T00:03:31.688Z,8.20
2019-03-01T00:04:31.684Z,8.21
2019-03-01T00:05:31.667Z,8.15
2019-03-01T00:06:31.681Z,8.18
2019-03-01T00:07:31.649Z,8.18
2019-03-01T00:08:31.639Z,8.15
2019-03-01T00:09:31.623Z,8.15
2019-03-01T00:10:31.613Z,8.15
2019-03-01T00:11:31.834Z,8.20
2019-03-01T00:12:31.594Z,8.20
2019-03-01T00:13:31.582Z,8.22
2019-03-01T00:14:31.572Z,8.25
2019-03-01T00:15:31.563Z,8.26
2019-03-01T00:16:31.581Z,8.26
2019-03-01T00:17:31.539Z,8.29
2019-03-01T00:18:31.530Z,8.29
2019-03-01T00:19:31.522Z,8.32
2019-03-01T00:20:31.508Z,8.47
2019-03-01T00:21:31.530Z,8.33
2019-03-01T00:22:31.486Z,8.33
2019-03-01T00:23:31.479Z,8.37
2019-03-01T00:24:31.464Z,8.36
2019-03-01T00:25:31.457Z,8.32
2019-03-01T00:26:31.490Z,8.36
2019-03-01T00:27:31.432Z,8.32
2019-03-01T00:28:31.419Z,8.32
2019-03-01T00:29:31.413Z,8.25
2019-03-01T00:30:31.417Z,8.22
2019-03-01T00:31:31.412Z,8.26
2019-03-01T00:32:31.380Z,8.12
2019-03-01T00:33:31.370Z,8.17
2019-03-01T00:34:31.357Z,8.22
2019-03-01T00:35:31.344Z,8.17
2019-03-01T00:36:31.356Z,8.18
2019-03-01T00:37:31.327Z,8.20
2019-03-01T00:38:31.361Z,8.22
2019-03-01T00:39:31.305Z,8.25
2019-03-01T00:40:31.294Z,8.21
2019-03-01T00:41:31.317Z,8.26
2019-03-01T00:42:31.267Z,8.04
2019-03-01T00:43:31.265Z,8.12
2019-03-01T00:44:31.254Z,8.12
2019-03-01T00:45:31.244Z,8.10
2019-03-01T00:46:31.250Z,8.11
2019-03-01T00:47:31.215Z,8.12
2019-03-01T00:48:31.219Z,8.20
2019-03-01T00:49:31.193Z,8.20
2019-03-01T00:50:31.183Z,8.11
2019-03-01T00:51:31.197Z,8.14
2019-03-01T00:52:31.161Z,8.03
2019-03-01T00:53:31.148Z,8.14
2019-03-01T00:54:31.140Z,8.15
2019-03-01T00:55:31.132Z,8.08
2019-03-01T00:56:31.148Z,8.08
2019-03-01T00:57:31.106Z,8.21
2019-03-01T00:58:31.096Z,8.22
2019-03-01T00:59:31.087Z,8.26
2019-03-01T01:00:31.075Z,8.15
2019-03-01T01:01:31.083Z,8.22
2019-03-01T01:02:31.058Z,8.18
2019-03-01T01:03:38.717Z,8.17
2019-03-01T01:04:31.040Z,8.21
2019-03-01T01:05:31.016Z,8.22
2019-03-01T01:06:31.043Z,8.17
2019-03-01T01:07:31.000Z,8.17
2019-03-01T01:08:30.984Z,8.18
2019-03-01T01:09:30.980Z,8.15
2019-03-01T01:10:30.973Z,8.26
2019-03-01T01:11:30.983Z,8.22
2019-03-01T01:12:30.942Z,8.15
2019-03-01T01:13:30.934Z,8.28
2019-03-01T01:14:30.920Z,8.18
2019-03-01T01:15:30.910Z,8.25
2019-03-01T01:16:30.923Z,8.20
2019-03-01T01:17:30.904Z,8.21
2019-03-01T01:18:30.877Z,8.21
2019-03-01T01:19:30.867Z,8.14
2019-03-01T01:20:30.852Z,8.14
2019-03-01T01:21:30.866Z,8.21
2019-03-01T01:22:30.831Z,8.17
2019-03-01T01:23:30.823Z,8.14
2019-03-01T01:24:30.820Z,8.07
2019-03-01T01:25:30.800Z,8.11
2019-03-01T01:26:30.814Z,8.12
2019-03-01T01:27:30.791Z,8.11
2019-03-01T01:28:30.768Z,8.11
2019-03-01T01:29:30.757Z,8.14
2019-03-01T01:30:30.748Z,8.11
2019-03-01T01:31:30.772Z,8.11
2019-03-01T01:32:30.731Z,8.10
2019-03-01T01:33:30.728Z,8.12
2019-03-01T01:34:30.700Z,8.14
2019-03-01T01:35:30.695Z,8.11
2019-03-01T01:36:30.681Z,8.11
2019-03-01T01:37:30.697Z,8.14
2019-03-01T01:38:30.660Z,8.10
2019-03-01T01:39:30.651Z,8.11
2019-03-01T01:40:30.638Z,8.17
2019-03-01T01:41:30.630Z,8.07
2019-03-01T01:42:30.639Z,8.22
2019-03-01T01:43:30.611Z,8.12
2019-03-01T01:44:30.597Z,8.15
2019-03-01T01:45:30.581Z,8.11
2019-03-01T01:46:30.572Z,8.11
2019-03-01T01:47:30.583Z,8.10
2019-03-01T01:48:30.550Z,8.14
2019-03-01T01:49:30.536Z,8.04
2019-03-01T01:50:30.537Z,8.15
2019-03-01T01:51:30.517Z,8.11
2019-03-01T01:52:30.532Z,8.11
2019-03-01T01:53:30.505Z,8.12
2019-03-01T01:54:30.488Z,8.10
2019-03-01T01:55:30.474Z,8.10
2019-03-01T01:56:30.475Z,8.10
2019-03-01T01:57:30.480Z,8.14
2019-03-01T01:58:30.440Z,8.17
2019-03-01T01:59:30.432Z,8.10
2019-03-01T02:00:30.420Z,8.14
2019-03-01T02:01:30.416Z,8.17
2019-03-01T02:02:30.417Z,8.08
2019-03-01T02:03:30.387Z,8.12
2019-03-01T02:04:30.377Z,8.11
2019-03-01T02:05:30.372Z,8.10
2019-03-01T02:06:30.353Z,8.11
2019-03-01T02:07:30.369Z,8.14
2019-03-01T02:08:30.332Z,8.07
2019-03-01T02:09:30.319Z,8.12
2019-03-01T02:10:30.310Z,8.12
2019-03-01T02:11:30.295Z,8.08
2019-03-01T02:12:30.318Z,8.10
2019-03-01T02:13:30.287Z,8.03
2019-03-01T02:14:30.267Z,8.07
2019-03-01T02:15:30.252Z,7.96
2019-03-01T02:16:30.260Z,8.11
2019-03-01T02:17:30.256Z,8.03
2019-03-01T02:18:30.224Z,8.02
2019-03-01T02:19:30.214Z,7.92
2019-03-01T02:20:30.199Z,8.03
2019-03-01T02:21:30.192Z,8.00
2019-03-01T02:22:30.208Z,8.04
2019-03-01T02:23:30.167Z,8.08
2019-03-01T02:24:30.161Z,8.03
2019-03-01T02:25:30.148Z,8.02
2019-03-01T02:26:30.137Z,7.97
2019-03-01T02:27:30.147Z,8.00
2019-03-01T02:28:30.137Z,8.08
2019-03-01T02:29:30.104Z,8.02
2019-03-01T02:30:30.168Z,8.03
2019-03-01T02:31:30.081Z,7.94
2019-03-01T02:32:30.100Z,7.99
2019-03-01T02:33:30.060Z,7.97
2019-03-01T02:34:30.051Z,7.87
2019-03-01T02:35:30.040Z,7.97
2019-03-01T02:36:30.025Z,7.93
2019-03-01T02:37:30.049Z,7.97
2019-03-01T02:38:30.017Z,7.96
2019-03-01T02:39:29.991Z,7.94
2019-03-01T02:40:29.987Z,7.99
2019-03-01T02:41:29.981Z,7.96
2019-03-01T02:42:29.997Z,7.96
2019-03-01T02:43:29.948Z,7.94
2019-03-01T02:44:29.950Z,7.92
2019-03-01T02:45:29.933Z,7.93
2019-03-01T02:46:29.919Z,8.00
2019-03-01T02:47:29.928Z,7.97
2019-03-01T02:48:29.896Z,7.93
2019-03-01T02:49:29.887Z,7.93
2019-03-01T02:50:29.912Z,7.87
2019-03-01T02:51:29.865Z,7.89
2019-03-01T02:52:29.877Z,7.92
2019-03-01T02:53:29.844Z,7.92
2019-03-01T02:54:29.828Z,7.94
2019-03-01T02:55:29.817Z,7.87
2019-03-01T02:56:29.885Z,7.97
2019-03-01T02:57:29.822Z,7.85
2019-03-01T02:58:29.788Z,7.92
2019-03-01T02:59:29.771Z,7.89
2019-03-01T03:00:29.769Z,7.87
2019-03-01T03:01:29.761Z,7.94
2019-03-01T03:02:29.793Z,7.92
2019-03-01T03:03:29.734Z,7.82
2019-03-01T03:04:29.733Z,7.97
2019-03-01T03:05:29.729Z,7.85
2019-03-01T03:06:29.704Z,7.96
2019-03-01T03:07:29.717Z,7.92
2019-03-01T03:08:29.680Z,7.99
2019-03-01T03:09:29.670Z,7.96
2019-03-01T03:10:29.725Z,7.94
2019-03-01T03:11:29.647Z,7.94
2019-03-01T03:12:29.687Z,7.93
2019-03-01T03:13:29.623Z,7.92
2019-03-01T03:14:29.622Z,8.00
2019-03-01T03:15:29.603Z,7.99
2019-03-01T03:16:29.593Z,7.94
2019-03-01T03:17:29.581Z,7.90
2019-03-01T03:18:29.594Z,7.89
2019-03-01T03:19:29.560Z,7.89
2019-03-01T03:20:29.553Z,7.92
2019-03-01T03:21:29.543Z,7.89
2019-03-01T03:22:29.540Z,7.85
2019-03-01T03:23:29.541Z,7.85
2019-03-01T03:24:29.509Z,7.82
2019-03-01T03:25:29.497Z,7.96
2019-03-01T03:26:29.569Z,7.94
2019-03-01T03:27:29.485Z,7.84
2019-03-01T03:28:29.492Z,7.90
2019-03-01T03:29:29.449Z,7.87
2019-03-01T03:30:29.473Z,7.84
2019-03-01T03:31:29.442Z,7.90
2019-03-01T03:32:29.435Z,7.92
2019-03-01T03:33:29.471Z,7.84
2019-03-01T03:34:29.415Z,7.82
2019-03-01T03:35:29.383Z,7.81
2019-03-01T03:36:29.377Z,7.82
2019-03-01T03:37:29.370Z,7.82
2019-03-01T03:38:29.379Z,7.81
2019-03-01T03:39:29.340Z,7.85
2019-03-01T03:40:29.340Z,7.90
2019-03-01T03:41:29.321Z,7.84
2019-03-01T03:42:29.312Z,7.90
2019-03-01T03:43:29.321Z,7.90
2019-03-01T03:44:29.297Z,7.92
2019-03-01T03:45:29.281Z,7.94
2019-03-01T03:46:29.271Z,7.94
2019-03-01T03:47:29.253Z,7.97
2019-03-01T03:48:29.277Z,7.90
2019-03-01T03:49:29.240Z,7.92
2019-03-01T03:50:29.259Z,7.89
2019-03-01T03:51:29.228Z,7.92
2019-03-01T03:52:29.231Z,7.92
2019-03-01T03:53:29.217Z,7.87
2019-03-01T03:54:29.179Z,7.94
2019-03-01T03:55:29.182Z,7.94
2019-03-01T03:56:29.159Z,7.94
2019-03-01T03:57:29.145Z,7.87
2019-03-01T03:58:29.165Z,7.94
2019-03-01T03:59:29.130Z,7.85
2019-03-01T04:00:29.120Z,7.90
2019-03-01T04:01:29.117Z,7.93
2019-03-01T04:02:29.092Z,7.90
2019-03-01T04:03:29.116Z,7.89
2019-03-01T04:04:29.089Z,7.90
2019-03-01T04:05:29.073Z,7.84
2019-03-01T04:06:29.084Z,7.90
2019-03-01T04:07:29.055Z,7.90
2019-03-01T04:08:29.059Z,7.84
2019-03-01T04:09:29.017Z,7.99
2019-03-01T04:10:29.018Z,7.92
2019-03-01T04:11:29.006Z,7.93
2019-03-01T04:12:28.991Z,7.99
2019-03-01T04:13:28.993Z,7.84
2019-03-01T04:14:28.961Z,7.82
2019-03-01T04:15:28.955Z,7.79
2019-03-01T04:16:28.943Z,7.81
2019-03-01T04:17:28.926Z,7.81
2019-03-01T04:18:28.951Z,7.81
2019-03-01T04:19:28.904Z,7.84
2019-03-01T04:20:28.904Z,7.74
2019-03-01T04:21:28.886Z,7.79
2019-03-01T04:22:28.871Z,7.77
2019-03-01T04:23:28.885Z,7.74
2019-03-01T04:24:28.856Z,7.81
2019-03-01T04:25:28.842Z,7.78
2019-03-01T04:26:28.834Z,7.77
2019-03-01T04:27:28.817Z,7.79
2019-03-01T04:28:28.836Z,7.74
2019-03-01T04:29:28.818Z,7.78
2019-03-01T04:30:28.797Z,7.74
2019-03-01T04:31:28.777Z,7.85
2019-03-01T04:32:28.763Z,7.84
2019-03-01T04:33:28.783Z,7.84
2019-03-01T04:34:28.752Z,7.82
2019-03-01T04:35:28.751Z,7.85
2019-03-01T04:36:28.724Z,7.77
2019-03-01T04:37:28.707Z,7.81
2019-03-01T04:38:28.732Z,7.85
2019-03-01T04:39:28.689Z,7.82
2019-03-01T04:40:28.681Z,7.81
2019-03-01T04:41:28.685Z,7.77
2019-03-01T04:42:28.651Z,7.78
2019-03-01T04:43:28.664Z,7.71
2019-03-01T04:44:28.643Z,7.74
2019-03-01T04:45:28.619Z,7.72
2019-03-01T04:46:28.612Z,7.77
2019-03-01T04:47:28.621Z,7.81
2019-03-01T04:48:28.633Z,7.75
2019-03-01T04:49:28.585Z,7.77
2019-03-01T04:50:28.565Z,7.74
2019-03-01T04:51:28.563Z,7.71
2019-03-01T04:52:28.559Z,7.75
2019-03-01T04:53:28.565Z,7.69
2019-03-01T04:54:28.520Z,7.77
2019-03-01T04:55:28.517Z,7.77
2019-03-01T04:56:28.499Z,7.79
2019-03-01T04:57:28.491Z,7.79
2019-03-01T04:58:28.528Z,7.74
2019-03-01T04:59:28.467Z,7.74
2019-03-01T05:00:28.460Z,7.60
2019-03-01T05:01:28.453Z,7.66
2019-03-01T05:02:28.436Z,7.77
2019-03-01T05:03:28.438Z,7.78
2019-03-01T05:04:28.436Z,7.72
2019-03-01T05:05:28.400Z,7.74
2019-03-01T05:06:28.400Z,7.71
2019-03-01T05:07:28.431Z,7.60
2019-03-01T05:08:28.377Z,7.58
2019-03-01T05:09:28.379Z,7.60
2019-03-01T05:10:28.351Z,7.59
2019-03-01T05:11:28.336Z,7.62
2019-03-01T05:12:28.395Z,7.62
2019-03-01T05:13:28.315Z,7.60
2019-03-01T05:14:28.328Z,7.63
2019-03-01T05:15:28.305Z,7.63
2019-03-01T05:16:28.283Z,7.60
2019-03-01T05:17:28.272Z,7.52
2019-03-01T05:18:28.312Z,7.56
2019-03-01T05:19:28.284Z,7.62
2019-03-01T05:20:30.474Z,7.62
2019-03-01T05:21:28.246Z,7.66
2019-03-01T05:22:28.215Z,7.59
2019-03-01T05:23:28.211Z,7.47
2019-03-01T05:24:28.223Z,7.50
2019-03-01T05:25:28.183Z,7.49
2019-03-01T05:26:28.188Z,7.47
2019-03-01T05:27:28.178Z,7.53
2019-03-01T05:28:28.149Z,7.50
2019-03-01T05:29:28.194Z,7.47
2019-03-01T05:30:28.128Z,7.45
2019-03-01T05:31:28.121Z,7.52
2019-03-01T05:32:28.123Z,7.50
2019-03-01T05:33:28.098Z,7.53
2019-03-01T05:34:28.126Z,7.45
2019-03-01T05:35:28.084Z,7.52
2019-03-01T05:36:28.064Z,7.49
2019-03-01T05:37:28.066Z,7.50
2019-03-01T05:38:28.054Z,7.52
2019-03-01T05:39:28.070Z,7.53
2019-03-01T05:40:28.025Z,7.45
2019-03-01T05:41:28.023Z,7.58
2019-03-01T05:42:28.001Z,7.47
2019-03-01T05:43:27.999Z,7.49
2019-03-01T05:44:28.005Z,7.55
2019-03-01T05:45:27.964Z,7.53
2019-03-01T05:46:27.959Z,7.55
2019-03-01T05:47:27.943Z,7.55
2019-03-01T05:48:27.931Z,7.53
2019-03-01T05:49:27.946Z,7.55
2019-03-01T05:50:27.929Z,7.52
2019-03-01T05:51:27.900Z,7.52
2019-03-01T05:52:27.895Z,7.55
2019-03-01T05:53:27.881Z,7.52
2019-03-01T05:54:27.907Z,7.53
2019-03-01T05:55:27.866Z,7.50
2019-03-01T05:56:27.845Z,7.50
2019-03-01T05:57:27.835Z,7.55
2019-03-01T05:58:27.840Z,7.47
2019-03-01T05:59:27.850Z,7.52
2019-03-01T06:00:27.811Z,7.45
2019-03-01T06:01:27.802Z,7.59
2019-03-01T06:02:27.782Z,7.50
2019-03-01T06:03:27.770Z,7.50
2019-03-01T06:04:27.783Z,7.52
2019-03-01T06:05:27.750Z,7.47
2019-03-01T06:06:27.755Z,7.44
2019-03-01T06:07:27.738Z,7.69
2019-03-01T06:08:27.721Z,7.50
2019-03-01T06:09:27.729Z,7.60
2019-03-01T06:10:27.712Z,7.50
2019-03-01T06:11:27.686Z,7.56
2019-03-01T06:12:27.688Z,7.62
2019-03-01T06:13:27.678Z,7.58
2019-03-01T06:14:27.682Z,7.56
2019-03-01T06:15:27.639Z,7.58
2019-03-01T06:16:27.628Z,7.55
2019-03-01T06:17:27.621Z,7.63
2019-03-01T06:18:27.633Z,7.58
2019-03-01T06:19:27.627Z,7.63
2019-03-01T06:20:27.631Z,7.63
2019-03-01T06:21:27.587Z,7.59
2019-03-01T06:22:27.566Z,7.62
2019-03-01T06:23:27.553Z,7.60
2019-03-01T06:24:27.564Z,7.59
2019-03-01T06:25:27.529Z,7.60
2019-03-01T06:26:27.520Z,7.62
2019-03-01T06:27:27.516Z,7.58
2019-03-01T06:28:27.507Z,7.66
2019-03-01T06:29:27.509Z,7.59
2019-03-01T06:30:27.506Z,7.58
2019-03-01T06:31:27.465Z,7.74
2019-03-01T06:32:27.460Z,7.72
2019-03-01T06:33:27.457Z,7.60
2019-03-01T06:34:27.473Z,7.75
2019-03-01T06:35:27.441Z,7.67
2019-03-01T06:36:27.422Z,7.81
2019-03-01T06:37:27.401Z,7.77
2019-03-01T06:38:27.391Z,7.81
2019-03-01T06:39:27.411Z,7.81
2019-03-01T06:40:27.394Z,7.79
2019-03-01T06:41:27.434Z,7.79
2019-03-01T06:42:27.372Z,7.85
2019-03-01T06:43:27.365Z,7.92
2019-03-01T06:44:27.395Z,7.85
2019-03-01T06:45:27.378Z,7.82
2019-03-01T06:46:27.318Z,7.89
2019-03-01T06:47:27.326Z,7.94
2019-03-01T06:48:27.282Z,7.87
2019-03-01T06:49:27.283Z,7.90
2019-03-01T06:50:27.319Z,7.90
2019-03-01T06:51:29.147Z,7.93
2019-03-01T06:52:27.307Z,7.94
2019-03-01T06:53:27.251Z,7.94
2019-03-01T06:54:27.237Z,7.97
2019-03-01T06:55:27.274Z,7.90
2019-03-01T06:56:27.219Z,7.94
2019-03-01T06:57:27.209Z,7.97
2019-03-01T06:58:27.208Z,8.02
2019-03-01T06:59:27.190Z,8.02
2019-03-01T07:00:27.236Z,8.11
2019-03-01T07:01:27.158Z,8.04
2019-03-01T07:02:27.157Z,8.08
2019-03-01T07:03:27.142Z,8.00
2019-03-01T07:04:37.792Z,8.07
2019-03-01T07:05:27.135Z,8.14
2019-03-01T07:06:27.094Z,8.12
2019-03-01T07:07:27.076Z,8.18
2019-03-01T07:08:27.063Z,8.25
2019-03-01T07:09:27.067Z,8.20
2019-03-01T07:10:27.076Z,8.25
2019-03-01T07:11:27.032Z,8.33
2019-03-01T07:12:27.020Z,8.33
2019-03-01T07:13:27.012Z,8.50
2019-03-01T07:14:27.012Z,8.62
2019-03-01T07:15:27.014Z,8.57
2019-03-01T07:16:26.976Z,8.57
2019-03-01T07:17:26.967Z,8.66
2019-03-01T07:18:26.955Z,8.54
2019-03-01T07:19:26.949Z,8.72
2019-03-01T07:20:26.999Z,8.72
2019-03-01T07:21:26.938Z,8.86
2019-03-01T07:22:26.918Z,8.79
2019-03-01T07:23:36.270Z,8.86
2019-03-01T07:24:27.892Z,8.76
2019-03-01T07:25:26.904Z,8.72
2019-03-01T07:26:26.882Z,8.65
2019-03-01T07:27:26.857Z,8.65
2019-03-01T07:28:26.860Z,8.50
2019-03-01T07:29:26.860Z,8.39
2019-03-01T07:30:26.856Z,8.39
2019-03-01T07:31:26.820Z,8.32
2019-03-01T07:32:26.807Z,8.30
2019-03-01T07:33:26.793Z,8.32
2019-03-01T07:34:26.791Z,8.32
2019-03-01T07:35:26.805Z,8.30
2019-03-01T07:36:26.761Z,8.26
2019-03-01T07:37:26.757Z,8.32
2019-03-01T07:38:26.745Z,8.28
2019-03-01T07:39:26.725Z,8.26
2019-03-01T07:40:26.747Z,8.22
2019-03-01T07:41:26.711Z,8.21
2019-03-01T07:42:26.702Z,8.29
2019-03-01T07:43:26.686Z,8.28
2019-03-01T07:44:26.672Z,8.15
2019-03-01T07:45:26.692Z,8.29
2019-03-01T07:46:26.653Z,8.28
2019-03-01T07:47:26.642Z,8.15
2019-03-01T07:48:26.635Z,8.28
2019-03-01T07:49:26.619Z,8.21
2019-03-01T07:50:26.639Z,8.20
2019-03-01T07:51:26.947Z,8.25
2019-03-01T07:52:26.590Z,8.22
2019-03-01T07:53:26.573Z,8.26
2019-03-01T07:54:26.566Z,8.26
2019-03-01T07:55:28.515Z,8.28
2019-03-01T07:56:26.544Z,8.30
2019-03-01T07:57:26.532Z,8.39
2019-03-01T07:58:26.811Z,8.35
2019-03-01T07:59:26.517Z,8.39
2019-03-01T08:00:26.529Z,8.45
2019-03-01T08:01:29.227Z,8.51
2019-03-01T08:02:26.486Z,8.51
2019-03-01T08:03:26.471Z,8.65
2019-03-01T08:04:28.859Z,8.73
2019-03-01T08:05:26.471Z,8.72
2019-03-01T08:06:26.445Z,8.76
2019-03-01T08:07:26.428Z,8.69
2019-03-01T08:08:26.410Z,8.87
2019-03-01T08:09:26.403Z,8.97
2019-03-01T08:10:26.418Z,9.10
2019-03-01T08:11:28.475Z,9.20
2019-03-01T08:13:38.270Z,9.42
2019-03-01T08:14:46.917Z,9.46
2019-03-01T08:15:40.779Z,9.45
2019-03-01T08:16:39.168Z,9.28
2019-03-01T08:17:38.162Z,9.12
2019-03-01T08:18:40.180Z,9.18
2019-03-01T08:19:39.134Z,9.06
2019-03-01T08:20:38.169Z,9.09
2019-03-01T08:21:38.123Z,9.05
2019-03-01T08:22:47.971Z,8.91
2019-03-01T08:23:39.101Z,8.96
2019-03-01T08:24:38.089Z,8.93
2019-03-01T08:25:38.107Z,8.90
2019-03-01T08:26:38.073Z,8.94
2019-03-01T08:27:38.058Z,8.88
2019-03-01T08:28:38.050Z,8.93
2019-03-01T08:29:40.388Z,8.81
2019-03-01T08:30:38.079Z,8.91
2019-03-01T08:31:38.025Z,9.01
2019-03-01T08:32:38.000Z,9.06
2019-03-01T08:33:42.323Z,9.09
2019-03-01T08:34:38.987Z,8.86
2019-03-01T08:35:47.542Z,8.84
2019-03-01T08:36:46.992Z,8.81
2019-03-01T08:37:37.971Z,8.84
2019-03-01T08:38:37.945Z,9.02
2019-03-01T08:39:39.801Z,8.87
2019-03-01T08:40:37.925Z,8.87
2019-03-01T08:41:37.942Z,8.76
2019-03-01T08:42:37.891Z,8.87
2019-03-01T08:43:37.889Z,8.87
2019-03-01T08:44:37.932Z,8.75
2019-03-01T08:45:37.865Z,8.88
2019-03-01T08:46:37.882Z,8.90
2019-03-01T08:47:37.853Z,8.90
2019-03-01T08:48:37.834Z,8.79
2019-03-01T08:49:37.815Z,8.81
2019-03-01T08:50:37.819Z,8.79
2019-03-01T08:51:37.821Z,8.84
2019-03-01T08:52:40.409Z,8.91
2019-03-01T08:53:37.778Z,8.90
2019-03-01T08:54:37.764Z,8.90
2019-03-01T08:55:38.950Z,8.97
2019-03-01T08:56:37.775Z,8.81
2019-03-01T08:57:44.312Z,8.91
2019-03-01T08:58:41.531Z,8.94
2019-03-01T08:59:37.711Z,8.94
2019-03-01T09:00:37.703Z,8.83
2019-03-01T09:01:37.720Z,8.93
2019-03-01T09:02:37.721Z,8.97
2019-03-01T09:03:37.668Z,8.87
2019-03-01T09:04:38.194Z,8.94
2019-03-01T09:05:37.654Z,8.90
2019-03-01T09:06:37.693Z,8.90
2019-03-01T09:07:37.625Z,8.73
2019-03-01T09:08:37.617Z,8.79
2019-03-01T09:09:37.611Z,8.86
2019-03-01T09:10:37.603Z,8.76
2019-03-01T09:11:37.619Z,8.75
2019-03-01T09:12:37.578Z,8.75
2019-03-01T09:13:37.565Z,8.78
2019-03-01T09:14:37.556Z,8.69
2019-03-01T09:15:37.549Z,8.68
2019-03-01T09:16:37.563Z,8.73
2019-03-01T09:17:37.527Z,8.68
2019-03-01T09:18:37.517Z,8.76
2019-03-01T09:19:37.504Z,8.72
2019-03-01T09:20:38.555Z,8.75
2019-03-01T09:21:39.461Z,8.71
2019-03-01T09:22:37.496Z,8.69
2019-03-01T09:23:39.526Z,8.78
2019-03-01T09:24:37.461Z,8.88
2019-03-01T09:25:37.463Z,8.86
2019-03-01T09:26:37.476Z,8.75
2019-03-01T09:27:37.434Z,8.75
2019-03-01T09:28:39.597Z,8.76
2019-03-01T09:29:41.555Z,8.71
2019-03-01T09:30:40.327Z,8.71
2019-03-01T09:31:38.422Z,8.69
2019-03-01T09:32:37.402Z,8.73
2019-03-01T09:33:37.368Z,8.86
2019-03-01T09:34:37.355Z,8.75
2019-03-01T09:35:39.720Z,8.69
2019-03-01T09:36:38.361Z,8.72
2019-03-01T09:37:37.335Z,8.72
2019-03-01T09:38:39.387Z,8.69
2019-03-01T09:39:38.308Z,8.78
2019-03-01T09:40:37.312Z,8.91
2019-03-01T09:41:40.613Z,8.94
2019-03-01T09:42:37.277Z,8.93
2019-03-01T09:43:37.271Z,9.01
2019-03-01T09:44:38.421Z,8.83
2019-03-01T09:45:37.243Z,8.90
2019-03-01T09:46:37.268Z,8.87
2019-03-01T09:47:38.020Z,9.01
2019-03-01T09:48:37.224Z,9.01
2019-03-01T09:49:37.201Z,8.91
2019-03-01T09:50:38.280Z,8.83
2019-03-01T09:51:37.217Z,8.86
2019-03-01T09:52:37.173Z,8.73
2019-03-01T09:53:37.178Z,8.69
2019-03-01T09:54:37.154Z,8.71
2019-03-01T09:55:37.575Z,8.62
2019-03-01T09:56:37.177Z,8.57
2019-03-01T09:57:37.124Z,8.58
2019-03-01T09:58:37.121Z,8.60
2019-03-01T09:59:37.102Z,8.47
2019-03-01T10:00:37.088Z,8.51
2019-03-01T10:01:37.081Z,8.48
2019-03-01T10:02:37.096Z,8.50
2019-03-01T10:03:37.059Z,8.65
2019-03-01T10:04:37.052Z,8.65
2019-03-01T10:05:37.038Z,8.73
2019-03-01T10:06:38.386Z,8.72
2019-03-01T10:07:37.054Z,8.87
2019-03-01T10:08:37.013Z,8.86
2019-03-01T10:09:36.997Z,9.01
2019-03-01T10:10:36.986Z,9.13
2019-03-01T10:11:36.966Z,9.21
2019-03-01T10:12:36.984Z,9.18
2019-03-01T10:13:36.959Z,9.16
2019-03-01T10:14:36.935Z,9.28
2019-03-01T10:15:36.933Z,9.24
2019-03-01T10:16:36.918Z,9.25
2019-03-01T10:17:36.943Z,9.12
2019-03-01T10:18:36.899Z,9.15
2019-03-01T10:19:36.881Z,9.12
2019-03-01T10:20:36.878Z,9.04
2019-03-01T10:21:36.870Z,9.06
2019-03-01T10:22:36.891Z,9.13
2019-03-01T10:23:36.847Z,8.90
2019-03-01T10:24:36.831Z,8.88
2019-03-01T10:25:36.827Z,8.81
2019-03-01T10:26:36.818Z,8.86
2019-03-01T10:27:36.839Z,8.75
2019-03-01T10:28:36.789Z,8.76
2019-03-01T10:29:36.791Z,8.86
2019-03-01T10:30:36.777Z,8.86
2019-03-01T10:31:36.776Z,8.86
2019-03-01T10:32:36.784Z,8.87
2019-03-01T10:33:36.782Z,8.75
2019-03-01T10:34:36.761Z,8.71
2019-03-01T10:35:36.739Z,8.73
2019-03-01T10:36:36.721Z,8.76
2019-03-01T10:37:36.741Z,8.73
2019-03-01T10:38:36.697Z,8.71
2019-03-01T10:39:36.688Z,8.88
2019-03-01T10:40:36.693Z,8.90
2019-03-01T10:41:36.729Z,8.96
2019-03-01T10:42:36.678Z,8.94
2019-03-01T10:43:36.641Z,8.99
2019-03-01T10:44:36.637Z,8.91
2019-03-01T10:45:36.629Z,8.91
2019-03-01T10:46:36.615Z,8.97
2019-03-01T10:47:36.636Z,8.99
2019-03-01T10:48:36.593Z,9.05
2019-03-01T10:49:36.592Z,9.13
2019-03-01T10:50:36.573Z,9.30
2019-03-01T10:51:36.598Z,9.64
2019-03-01T10:52:36.609Z,9.86
2019-03-01T10:53:36.549Z,10.12
2019-03-01T10:54:36.534Z,10.22
2019-03-01T10:55:36.549Z,10.43
2019-03-01T10:56:36.509Z,10.55
2019-03-01T10:57:36.550Z,10.62
2019-03-01T10:58:36.489Z,10.52
2019-03-01T10:59:36.474Z,10.52
2019-03-01T11:00:36.480Z,10.73
2019-03-01T11:01:36.454Z,10.99
2019-03-01T11:02:36.468Z,11.25
2019-03-01T11:03:36.441Z,11.10
2019-03-01T11:04:36.426Z,11.21
2019-03-01T11:05:36.413Z,10.88
2019-03-01T11:06:36.402Z,10.34
2019-03-01T11:07:36.419Z,10.24
2019-03-01T11:08:36.384Z,10.26
2019-03-01T11:09:36.375Z,10.14
2019-03-01T11:10:36.369Z,9.89
2019-03-01T11:11:36.346Z,9.91
2019-03-01T11:12:36.373Z,9.85
2019-03-01T11:13:36.324Z,9.85
2019-03-01T11:14:36.319Z,9.86
2019-03-01T11:15:36.314Z,9.83
2019-03-01T11:16:36.302Z,9.79
2019-03-01T11:17:36.311Z,9.70
2019-03-01T11:18:36.269Z,9.82
2019-03-01T11:19:36.258Z,9.83
2019-03-01T11:20:36.251Z,9.89
2019-03-01T11:21:36.273Z,9.96
2019-03-01T11:22:36.250Z,10.00
2019-03-01T11:23:36.243Z,9.97
2019-03-01T11:24:36.199Z,9.93
2019-03-01T11:25:36.195Z,9.79
2019-03-01T11:26:36.181Z,9.67
2019-03-01T11:27:36.205Z,9.73
2019-03-01T11:28:36.165Z,9.70
2019-03-01T11:29:36.152Z,9.73
2019-03-01T11:30:36.157Z,9.70
2019-03-01T11:31:36.142Z,9.86
2019-03-01T11:32:36.157Z,9.83
2019-03-01T11:33:36.125Z,9.76
2019-03-01T11:34:36.327Z,9.73
2019-03-01T11:35:36.097Z,9.56
2019-03-01T11:36:36.085Z,9.48
2019-03-01T11:37:36.110Z,9.28
2019-03-01T11:38:36.058Z,9.28
2019-03-01T11:39:36.051Z,9.24
2019-03-01T11:40:36.041Z,9.16
2019-03-01T11:41:36.022Z,8.97
2019-03-01T11:42:36.013Z,8.86
2019-03-01T11:43:36.034Z,8.78
2019-03-01T11:44:35.994Z,8.90
2019-03-01T11:45:35.994Z,8.87
2019-03-01T11:46:35.975Z,8.86
2019-03-01T11:47:35.967Z,8.90
2019-03-01T11:48:35.985Z,8.79
2019-03-01T11:49:35.948Z,8.73
2019-03-01T11:50:35.935Z,8.78
2019-03-01T11:51:35.928Z,8.65
2019-03-01T11:52:35.913Z,8.60
2019-03-01T11:53:35.944Z,8.62
2019-03-01T11:54:35.898Z,8.65
2019-03-01T11:55:35.898Z,8.58
2019-03-01T11:56:35.908Z,8.65
2019-03-01T11:57:35.864Z,8.53
2019-03-01T11:58:35.893Z,8.39
2019-03-01T11:59:35.835Z,8.40
2019-03-01T12:00:35.835Z,8.42
2019-03-01T12:01:35.817Z,8.32
2019-03-01T12:02:35.810Z,8.21
2019-03-01T12:03:35.844Z,8.17
2019-03-01T12:04:35.821Z,8.11
2019-03-01T12:05:35.803Z,8.02
2019-03-01T12:06:35.794Z,7.93
2019-03-01T12:07:35.756Z,7.84
2019-03-01T12:08:35.770Z,7.77
2019-03-01T12:09:35.728Z,7.58
2019-03-01T12:10:35.721Z,7.49
2019-03-01T12:11:35.718Z,7.52
2019-03-01T12:12:35.702Z,7.44
2019-03-01T12:13:35.708Z,7.34
2019-03-01T12:14:35.680Z,7.37
2019-03-01T12:15:35.665Z,7.32
2019-03-01T12:16:35.659Z,7.24
2019-03-01T12:17:35.651Z,7.16
2019-03-01T12:18:35.665Z,7.12
2019-03-01T12:19:35.623Z,6.98
2019-03-01T12:20:35.609Z,7.01
2019-03-01T12:21:35.608Z,7.04
2019-03-01T12:22:35.588Z,6.91
2019-03-01T12:23:35.606Z,6.90
2019-03-01T12:24:35.578Z,7.08
2019-03-01T12:25:35.557Z,6.98
2019-03-01T12:26:35.571Z,6.99
2019-03-01T12:27:35.546Z,6.91
2019-03-01T12:28:35.553Z,6.84
2019-03-01T12:29:35.519Z,6.81
2019-03-01T12:30:35.510Z,6.81
2019-03-01T12:31:35.506Z,6.76
2019-03-01T12:32:35.479Z,6.81
2019-03-01T12:33:35.502Z,6.76
2019-03-01T12:34:35.455Z,6.71
2019-03-01T12:35:35.442Z,6.72
2019-03-01T12:36:35.442Z,6.77
2019-03-01T12:37:35.434Z,6.80
2019-03-01T12:38:35.445Z,6.61
2019-03-01T12:39:35.406Z,6.61
2019-03-01T12:40:35.387Z,6.51
2019-03-01T12:41:35.382Z,6.48
2019-03-01T12:42:35.368Z,6.36
2019-03-01T12:43:35.386Z,6.22
2019-03-01T12:44:35.346Z,6.11
2019-03-01T12:45:35.333Z,6.13
2019-03-01T12:46:35.330Z,6.10
2019-03-01T12:47:35.321Z,6.19
2019-03-01T12:48:35.328Z,6.10
2019-03-01T12:49:35.293Z,6.32
2019-03-01T12:50:35.282Z,6.13
2019-03-01T12:51:35.272Z,6.14
2019-03-01T12:52:35.270Z,6.14
2019-03-01T12:53:35.279Z,6.11
2019-03-01T12:54:35.240Z,6.16
2019-03-01T12:55:35.229Z,6.11
2019-03-01T12:56:35.237Z,6.16
2019-03-01T12:57:35.209Z,6.11
2019-03-01T12:58:35.291Z,6.00
2019-03-01T12:59:35.187Z,5.98
2019-03-01T13:00:35.178Z,5.92
2019-03-01T13:01:35.169Z,5.81
2019-03-01T13:02:35.158Z,5.86
2019-03-01T13:03:35.170Z,6.00
2019-03-01T13:04:35.134Z,5.89
2019-03-01T13:05:35.124Z,5.91
2019-03-01T13:06:35.466Z,5.92
2019-03-01T13:07:35.101Z,5.74
2019-03-01T13:08:35.116Z,5.71
2019-03-01T13:09:35.081Z,5.78
2019-03-01T13:10:36.798Z,5.82
2019-03-01T13:11:35.061Z,5.78
2019-03-01T13:12:35.054Z,5.77
2019-03-01T13:13:38.374Z,5.74
2019-03-01T13:14:36.725Z,5.63
2019-03-01T13:15:35.017Z,5.73
2019-03-01T13:16:35.008Z,5.74
2019-03-01T13:17:37.180Z,5.78
2019-03-01T13:18:35.026Z,5.78